Terminal Aerodrome Forecast
Issued by NWS

Home | Current Version | Previous Version | Text Only | Print | Product List | Glossary On
Versions: 1 2 3 4 5 6 7 8 9 10 11 12 13 14 15 16 17 18 19 20 21 22 23 24 25 26 27 28 29 30 31 32 33 34 35 36 37
000
FTUS41 KBUF 050104 AAA
TAFJHW
TAF AMD
KJHW 050104Z 0501/0524 VRB03KT P6SM -SHRA VCTS BKN035CB
     FM050200 09004KT P6SM SCT035
     FM050500 13005KT 1/2SM FG SCT045
     FM050800 16004KT 1/2SM FG BKN025
     FM051400 18007KT P6SM BKN015
     FM051700 18007KT P6SM BKN030
      AMD LTD TO CLD VIS AND WIND=

USA.gov is the U.S. government's official web portal to all federal, state and local government web resources and services.